sensor_id;sensor_type;location;lat;lon;timestamp;P1;durP1;ratioP1;P2;durP2;ratioP2
21352;SDS011;10834;52.268;6.770;2023-03-08T00:00:39;12.57;;;6.67;;
21352;SDS011;10834;52.268;6.770;2023-03-08T00:03:25;11.40;;;6.20;;
21352;SDS011;10834;52.268;6.770;2023-03-08T00:06:13;10.07;;;6.70;;
21352;SDS011;10834;52.268;6.770;2023-03-08T00:09:00;11.13;;;6.43;;
21352;SDS011;10834;52.268;6.770;2023-03-08T00:11:47;11.17;;;7.23;;
21352;SDS011;10834;52.268;6.770;2023-03-08T00:14:33;14.73;;;7.53;;
21352;SDS011;10834;52.268;6.770;2023-03-08T00:17:19;9.63;;;7.57;;
21352;SDS011;10834;52.268;6.770;2023-03-08T00:20:06;10.80;;;7.20;;
21352;SDS011;10834;52.268;6.770;2023-03-08T00:22:59;11.40;;;7.97;;
21352;SDS011;10834;52.268;6.770;2023-03-08T00:25:50;14.63;;;7.50;;
21352;SDS011;10834;52.268;6.770;2023-03-08T00:28:37;13.53;;;8.07;;
21352;SDS011;10834;52.268;6.770;2023-03-08T00:31:23;12.07;;;7.33;;
21352;SDS011;10834;52.268;6.770;2023-03-08T00:34:09;10.67;;;7.97;;
21352;SDS011;10834;52.268;6.770;2023-03-08T00:36:56;14.47;;;8.20;;
21352;SDS011;10834;52.268;6.770;2023-03-08T00:39:42;13.33;;;8.93;;
21352;SDS011;10834;52.268;6.770;2023-03-08T00:42:28;11.87;;;9.17;;
21352;SDS011;10834;52.268;6.770;2023-03-08T00:45:14;13.73;;;8.30;;
21352;SDS011;10834;52.268;6.770;2023-03-08T00:48:00;15.77;;;8.97;;
21352;SDS011;10834;52.268;6.770;2023-03-08T00:50:46;12.97;;;9.07;;
21352;SDS011;10834;52.268;6.770;2023-03-08T00:53:32;15.10;;;9.67;;
21352;SDS011;10834;52.268;6.770;2023-03-08T00:56:19;14.03;;;9.77;;
21352;SDS011;10834;52.268;6.770;2023-03-08T00:59:05;18.20;;;10.23;;
21352;SDS011;10834;52.268;6.770;2023-03-08T01:01:51;13.47;;;9.60;;
21352;SDS011;10834;52.268;6.770;2023-03-08T01:04:37;17.67;;;10.70;;
21352;SDS011;10834;52.268;6.770;2023-03-08T01:07:23;13.97;;;10.03;;
21352;SDS011;10834;52.268;6.770;2023-03-08T01:10:10;15.83;;;10.60;;
21352;SDS011;10834;52.268;6.770;2023-03-08T01:12:57;16.73;;;10.57;;
21352;SDS011;10834;52.268;6.770;2023-03-08T01:15:43;18.27;;;11.33;;
21352;SDS011;10834;52.268;6.770;2023-03-08T01:18:29;20.30;;;12.53;;
21352;SDS011;10834;52.268;6.770;2023-03-08T01:21:15;20.63;;;12.50;;
21352;SDS011;10834;52.268;6.770;2023-03-08T01:24:02;19.97;;;11.03;;
21352;SDS011;10834;52.268;6.770;2023-03-08T01:26:48;18.07;;;11.60;;
21352;SDS011;10834;52.268;6.770;2023-03-08T01:29:34;20.80;;;11.70;;
21352;SDS011;10834;52.268;6.770;2023-03-08T01:32:20;19.83;;;11.60;;
21352;SDS011;10834;52.268;6.770;2023-03-08T01:35:06;17.37;;;11.43;;
21352;SDS011;10834;52.268;6.770;2023-03-08T01:37:53;18.43;;;11.27;;
21352;SDS011;10834;52.268;6.770;2023-03-08T01:40:39;14.40;;;9.67;;
21352;SDS011;10834;52.268;6.770;2023-03-08T01:46:18;16.90;;;11.03;;
21352;SDS011;10834;52.268;6.770;2023-03-08T01:52:18;18.63;;;10.47;;
21352;SDS011;10834;52.268;6.770;2023-03-08T01:55:08;19.17;;;10.60;;
21352;SDS011;10834;52.268;6.770;2023-03-08T01:57:56;21.73;;;12.00;;
21352;SDS011;10834;52.268;6.770;2023-03-08T02:00:43;19.53;;;11.27;;
21352;SDS011;10834;52.268;6.770;2023-03-08T02:03:29;19.10;;;11.00;;
21352;SDS011;10834;52.268;6.770;2023-03-08T02:06:15;17.87;;;11.83;;
21352;SDS011;10834;52.268;6.770;2023-03-08T02:09:03;18.87;;;11.17;;
21352;SDS011;10834;52.268;6.770;2023-03-08T02:11:50;17.73;;;11.83;;
21352;SDS011;10834;52.268;6.770;2023-03-08T02:14:37;19.20;;;12.13;;
21352;SDS011;10834;52.268;6.770;2023-03-08T02:17:24;22.13;;;12.40;;
21352;SDS011;10834;52.268;6.770;2023-03-08T02:26:03;27.20;;;14.00;;
21352;SDS011;10834;52.268;6.770;2023-03-08T02:28:50;23.10;;;13.50;;
21352;SDS011;10834;52.268;6.770;2023-03-08T02:31:36;21.53;;;13.23;;
21352;SDS011;10834;52.268;6.770;2023-03-08T02:34:22;24.17;;;13.10;;
21352;SDS011;10834;52.268;6.770;2023-03-08T02:37:08;22.57;;;13.87;;
21352;SDS011;10834;52.268;6.770;2023-03-08T02:39:54;22.20;;;14.03;;
21352;SDS011;10834;52.268;6.770;2023-03-08T02:42:40;22.57;;;13.97;;
21352;SDS011;10834;52.268;6.770;2023-03-08T02:45:26;22.33;;;14.13;;
21352;SDS011;10834;52.268;6.770;2023-03-08T02:48:12;22.00;;;12.93;;
21352;SDS011;10834;52.268;6.770;2023-03-08T02:50:59;20.80;;;14.03;;
21352;SDS011;10834;52.268;6.770;2023-03-08T02:53:45;23.03;;;15.67;;
21352;SDS011;10834;52.268;6.770;2023-03-08T02:56:31;21.50;;;13.50;;
21352;SDS011;10834;52.268;6.770;2023-03-08T02:59:17;23.63;;;15.93;;
21352;SDS011;10834;52.268;6.770;2023-03-08T03:02:03;25.93;;;15.00;;
21352;SDS011;10834;52.268;6.770;2023-03-08T03:04:49;21.80;;;14.10;;
21352;SDS011;10834;52.268;6.770;2023-03-08T03:07:38;25.77;;;14.53;;
21352;SDS011;10834;52.268;6.770;2023-03-08T03:10:26;26.53;;;14.77;;
21352;SDS011;10834;52.268;6.770;2023-03-08T03:13:12;26.50;;;14.43;;
21352;SDS011;10834;52.268;6.770;2023-03-08T03:15:58;26.00;;;15.60;;
21352;SDS011;10834;52.268;6.770;2023-03-08T03:18:54;31.07;;;15.83;;
21352;SDS011;10834;52.268;6.770;2023-03-08T03:21:41;27.30;;;14.03;;
21352;SDS011;10834;52.268;6.770;2023-03-08T03:24:26;33.93;;;15.47;;
21352;SDS011;10834;52.268;6.770;2023-03-08T03:27:13;32.77;;;17.37;;
21352;SDS011;10834;52.268;6.770;2023-03-08T03:29:59;33.70;;;17.73;;
21352;SDS011;10834;52.268;6.770;2023-03-08T03:32:45;30.27;;;17.50;;
21352;SDS011;10834;52.268;6.770;2023-03-08T03:35:31;36.43;;;18.87;;
21352;SDS011;10834;52.268;6.770;2023-03-08T03:38:17;30.53;;;16.70;;
21352;SDS011;10834;52.268;6.770;2023-03-08T03:41:04;29.40;;;16.43;;
21352;SDS011;10834;52.268;6.770;2023-03-08T03:43:58;32.80;;;17.00;;
21352;SDS011;10834;52.268;6.770;2023-03-08T03:46:44;37.03;;;17.93;;
21352;SDS011;10834;52.268;6.770;2023-03-08T03:49:30;36.57;;;18.57;;
21352;SDS011;10834;52.268;6.770;2023-03-08T03:52:16;34.40;;;18.63;;
21352;SDS011;10834;52.268;6.770;2023-03-08T03:55:02;33.87;;;18.40;;
21352;SDS011;10834;52.268;6.770;2023-03-08T03:57:49;33.97;;;17.23;;
21352;SDS011;10834;52.268;6.770;2023-03-08T04:00:35;33.67;;;18.63;;
21352;SDS011;10834;52.268;6.770;2023-03-08T04:03:22;28.67;;;16.43;;
21352;SDS011;10834;52.268;6.770;2023-03-08T04:06:09;39.37;;;17.40;;
21352;SDS011;10834;52.268;6.770;2023-03-08T04:08:59;34.30;;;16.40;;
21352;SDS011;10834;52.268;6.770;2023-03-08T04:11:47;37.27;;;15.37;;
21352;SDS011;10834;52.268;6.770;2023-03-08T04:14:33;31.67;;;16.40;;
21352;SDS011;10834;52.268;6.770;2023-03-08T04:17:19;37.33;;;16.77;;
21352;SDS011;10834;52.268;6.770;2023-03-08T04:20:05;27.43;;;15.53;;
21352;SDS011;10834;52.268;6.770;2023-03-08T04:22:52;34.47;;;16.67;;
21352;SDS011;10834;52.268;6.770;2023-03-08T04:25:38;38.53;;;15.87;;
21352;SDS011;10834;52.268;6.770;2023-03-08T04:28:24;36.50;;;16.57;;
21352;SDS011;10834;52.268;6.770;2023-03-08T04:31:17;37.87;;;15.07;;
21352;SDS011;10834;52.268;6.770;2023-03-08T04:34:05;31.53;;;15.07;;
21352;SDS011;10834;52.268;6.770;2023-03-08T04:36:52;33.07;;;16.73;;
21352;SDS011;10834;52.268;6.770;2023-03-08T04:39:38;31.40;;;16.53;;
21352;SDS011;10834;52.268;6.770;2023-03-08T04:42:24;36.37;;;15.37;;
21352;SDS011;10834;52.268;6.770;2023-03-08T04:45:10;31.53;;;16.47;;
21352;SDS011;10834;52.268;6.770;2023-03-08T04:47:56;29.23;;;15.83;;
21352;SDS011;10834;52.268;6.770;2023-03-08T04:50:42;29.57;;;15.00;;
21352;SDS011;10834;52.268;6.770;2023-03-08T04:53:28;31.63;;;15.70;;
21352;SDS011;10834;52.268;6.770;2023-03-08T04:56:15;31.63;;;16.07;;
21352;SDS011;10834;52.268;6.770;2023-03-08T04:59:02;30.27;;;14.83;;
21352;SDS011;10834;52.268;6.770;2023-03-08T05:01:48;34.03;;;16.13;;
21352;SDS011;10834;52.268;6.770;2023-03-08T05:04:34;33.87;;;16.17;;
21352;SDS011;10834;52.268;6.770;2023-03-08T05:07:20;33.10;;;16.60;;
21352;SDS011;10834;52.268;6.770;2023-03-08T05:10:06;28.50;;;15.13;;
21352;SDS011;10834;52.268;6.770;2023-03-08T05:12:53;32.83;;;14.53;;
21352;SDS011;10834;52.268;6.770;2023-03-08T05:15:39;29.10;;;14.67;;
21352;SDS011;10834;52.268;6.770;2023-03-08T05:18:26;28.23;;;14.67;;
21352;SDS011;10834;52.268;6.770;2023-03-08T05:21:13;32.33;;;15.20;;
21352;SDS011;10834;52.268;6.770;2023-03-08T05:24:01;29.27;;;14.50;;
21352;SDS011;10834;52.268;6.770;2023-03-08T05:26:47;35.03;;;16.03;;
21352;SDS011;10834;52.268;6.770;2023-03-08T05:29:33;31.83;;;15.53;;
21352;SDS011;10834;52.268;6.770;2023-03-08T05:32:21;29.87;;;15.33;;
21352;SDS011;10834;52.268;6.770;2023-03-08T05:35:07;25.73;;;14.60;;
21352;SDS011;10834;52.268;6.770;2023-03-08T05:37:53;27.83;;;14.50;;
21352;SDS011;10834;52.268;6.770;2023-03-08T05:40:39;29.50;;;14.70;;
21352;SDS011;10834;52.268;6.770;2023-03-08T05:43:26;29.77;;;14.70;;
21352;SDS011;10834;52.268;6.770;2023-03-08T05:46:13;30.17;;;15.50;;
21352;SDS011;10834;52.268;6.770;2023-03-08T05:49:04;25.30;;;14.20;;
21352;SDS011;10834;52.268;6.770;2023-03-08T05:51:50;31.63;;;14.63;;
21352;SDS011;10834;52.268;6.770;2023-03-08T05:54:36;32.77;;;14.27;;
21352;SDS011;10834;52.268;6.770;2023-03-08T05:57:23;34.53;;;16.17;;
21352;SDS011;10834;52.268;6.770;2023-03-08T06:00:10;32.47;;;16.90;;
21352;SDS011;10834;52.268;6.770;2023-03-08T06:02:57;33.73;;;16.83;;
21352;SDS011;10834;52.268;6.770;2023-03-08T06:05:44;26.60;;;14.83;;
21352;SDS011;10834;52.268;6.770;2023-03-08T06:08:30;34.70;;;15.90;;
21352;SDS011;10834;52.268;6.770;2023-03-08T06:11:16;45.77;;;18.57;;
21352;SDS011;10834;52.268;6.770;2023-03-08T06:14:03;45.77;;;19.60;;
21352;SDS011;10834;52.268;6.770;2023-03-08T06:16:49;39.33;;;18.67;;
21352;SDS011;10834;52.268;6.770;2023-03-08T06:19:35;43.73;;;19.33;;
21352;SDS011;10834;52.268;6.770;2023-03-08T06:22:21;39.00;;;16.77;;
21352;SDS011;10834;52.268;6.770;2023-03-08T06:25:07;34.27;;;16.87;;
21352;SDS011;10834;52.268;6.770;2023-03-08T06:27:53;30.53;;;16.30;;
21352;SDS011;10834;52.268;6.770;2023-03-08T06:30:39;34.77;;;16.80;;
21352;SDS011;10834;52.268;6.770;2023-03-08T06:33:27;31.73;;;16.63;;
21352;SDS011;10834;52.268;6.770;2023-03-08T06:36:15;28.20;;;15.20;;
21352;SDS011;10834;52.268;6.770;2023-03-08T06:39:03;30.00;;;14.50;;
21352;SDS011;10834;52.268;6.770;2023-03-08T06:41:51;32.17;;;14.43;;
21352;SDS011;10834;52.268;6.770;2023-03-08T06:44:37;24.77;;;13.73;;
21352;SDS011;10834;52.268;6.770;2023-03-08T06:47:23;34.00;;;16.50;;
21352;SDS011;10834;52.268;6.770;2023-03-08T06:50:09;32.17;;;17.03;;
21352;SDS011;10834;52.268;6.770;2023-03-08T06:52:56;31.60;;;15.30;;
21352;SDS011;10834;52.268;6.770;2023-03-08T06:55:42;31.40;;;15.80;;
21352;SDS011;10834;52.268;6.770;2023-03-08T06:58:28;32.23;;;14.93;;
21352;SDS011;10834;52.268;6.770;2023-03-08T07:01:14;28.73;;;15.50;;
21352;SDS011;10834;52.268;6.770;2023-03-08T07:04:01;34.10;;;15.00;;
21352;SDS011;10834;52.268;6.770;2023-03-08T07:06:47;34.23;;;15.43;;
21352;SDS011;10834;52.268;6.770;2023-03-08T07:09:33;31.13;;;16.07;;
21352;SDS011;10834;52.268;6.770;2023-03-08T07:12:19;32.30;;;16.60;;
21352;SDS011;10834;52.268;6.770;2023-03-08T07:15:06;34.03;;;15.93;;
21352;SDS011;10834;52.268;6.770;2023-03-08T07:17:53;32.83;;;17.57;;
21352;SDS011;10834;52.268;6.770;2023-03-08T07:20:40;27.47;;;14.50;;
21352;SDS011;10834;52.268;6.770;2023-03-08T07:23:27;35.30;;;15.43;;
21352;SDS011;10834;52.268;6.770;2023-03-08T07:26:13;29.87;;;16.33;;
21352;SDS011;10834;52.268;6.770;2023-03-08T07:28:59;28.47;;;15.63;;
21352;SDS011;10834;52.268;6.770;2023-03-08T07:31:45;28.10;;;15.67;;
21352;SDS011;10834;52.268;6.770;2023-03-08T07:34:31;28.37;;;14.77;;
21352;SDS011;10834;52.268;6.770;2023-03-08T07:37:17;26.87;;;13.90;;
21352;SDS011;10834;52.268;6.770;2023-03-08T07:40:03;29.87;;;15.33;;
21352;SDS011;10834;52.268;6.770;2023-03-08T07:42:51;30.40;;;16.37;;
21352;SDS011;10834;52.268;6.770;2023-03-08T07:45:37;28.27;;;15.87;;
21352;SDS011;10834;52.268;6.770;2023-03-08T07:48:24;26.47;;;14.73;;
21352;SDS011;10834;52.268;6.770;2023-03-08T07:51:10;27.93;;;14.20;;
21352;SDS011;10834;52.268;6.770;2023-03-08T07:53:56;28.90;;;15.10;;
21352;SDS011;10834;52.268;6.770;2023-03-08T07:56:42;26.20;;;13.87;;
21352;SDS011;10834;52.268;6.770;2023-03-08T07:59:28;26.27;;;13.20;;
21352;SDS011;10834;52.268;6.770;2023-03-08T08:02:15;26.73;;;13.57;;
21352;SDS011;10834;52.268;6.770;2023-03-08T08:05:02;24.87;;;13.43;;
21352;SDS011;10834;52.268;6.770;2023-03-08T08:07:49;25.20;;;13.70;;
21352;SDS011;10834;52.268;6.770;2023-03-08T08:10:35;27.97;;;14.17;;
21352;SDS011;10834;52.268;6.770;2023-03-08T08:13:21;22.23;;;12.30;;
21352;SDS011;10834;52.268;6.770;2023-03-08T08:16:07;29.67;;;13.63;;
21352;SDS011;10834;52.268;6.770;2023-03-08T08:18:54;26.70;;;14.03;;
21352;SDS011;10834;52.268;6.770;2023-03-08T08:21:40;26.30;;;13.40;;
21352;SDS011;10834;52.268;6.770;2023-03-08T08:24:26;24.50;;;13.90;;
21352;SDS011;10834;52.268;6.770;2023-03-08T08:27:12;25.43;;;13.17;;
21352;SDS011;10834;52.268;6.770;2023-03-08T08:29:58;27.13;;;14.03;;
21352;SDS011;10834;52.268;6.770;2023-03-08T08:32:44;26.70;;;13.53;;
21352;SDS011;10834;52.268;6.770;2023-03-08T08:35:30;22.57;;;12.37;;
21352;SDS011;10834;52.268;6.770;2023-03-08T08:38:17;25.63;;;13.47;;
21352;SDS011;10834;52.268;6.770;2023-03-08T08:41:04;24.70;;;14.13;;
21352;SDS011;10834;52.268;6.770;2023-03-08T08:43:51;22.40;;;12.27;;
21352;SDS011;10834;52.268;6.770;2023-03-08T08:46:41;20.63;;;12.80;;
21352;SDS011;10834;52.268;6.770;2023-03-08T08:49:27;21.93;;;12.23;;
21352;SDS011;10834;52.268;6.770;2023-03-08T08:52:13;20.13;;;11.87;;
21352;SDS011;10834;52.268;6.770;2023-03-08T08:54:59;23.03;;;12.47;;
21352;SDS011;10834;52.268;6.770;2023-03-08T08:57:46;22.43;;;12.57;;
21352;SDS011;10834;52.268;6.770;2023-03-08T09:00:32;23.90;;;13.10;;
21352;SDS011;10834;52.268;6.770;2023-03-08T09:03:18;25.83;;;13.67;;
21352;SDS011;10834;52.268;6.770;2023-03-08T09:06:04;26.73;;;13.77;;
21352;SDS011;10834;52.268;6.770;2023-03-08T09:08:51;21.27;;;12.30;;
21352;SDS011;10834;52.268;6.770;2023-03-08T09:11:39;24.37;;;12.00;;
21352;SDS011;10834;52.268;6.770;2023-03-08T09:14:25;20.50;;;11.77;;
21352;SDS011;10834;52.268;6.770;2023-03-08T09:17:11;19.87;;;11.73;;
21352;SDS011;10834;52.268;6.770;2023-03-08T09:19:57;18.63;;;11.80;;
21352;SDS011;10834;52.268;6.770;2023-03-08T09:22:43;17.77;;;10.50;;
21352;SDS011;10834;52.268;6.770;2023-03-08T09:25:29;20.43;;;12.37;;
21352;SDS011;10834;52.268;6.770;2023-03-08T09:28:16;21.57;;;12.10;;
21352;SDS011;10834;52.268;6.770;2023-03-08T09:31:09;22.00;;;12.23;;
21352;SDS011;10834;52.268;6.770;2023-03-08T09:33:59;20.20;;;12.60;;
21352;SDS011;10834;52.268;6.770;2023-03-08T09:36:45;20.43;;;11.73;;
21352;SDS011;10834;52.268;6.770;2023-03-08T09:39:32;18.20;;;11.47;;
21352;SDS011;10834;52.268;6.770;2023-03-08T09:42:31;20.50;;;12.37;;
21352;SDS011;10834;52.268;6.770;2023-03-08T09:51:05;19.10;;;11.90;;
21352;SDS011;10834;52.268;6.770;2023-03-08T09:53:58;20.40;;;11.83;;
21352;SDS011;10834;52.268;6.770;2023-03-08T09:56:50;21.73;;;11.53;;
21352;SDS011;10834;52.268;6.770;2023-03-08T09:59:52;21.67;;;11.20;;
21352;SDS011;10834;52.268;6.770;2023-03-08T10:11:44;21.07;;;12.27;;
21352;SDS011;10834;52.268;6.770;2023-03-08T10:14:40;25.70;;;12.73;;
21352;SDS011;10834;52.268;6.770;2023-03-08T10:18:15;24.87;;;12.60;;
21352;SDS011;10834;52.268;6.770;2023-03-08T10:20:41;23.77;;;12.43;;
21352;SDS011;10834;52.268;6.770;2023-03-08T10:23:29;27.53;;;13.23;;
21352;SDS011;10834;52.268;6.770;2023-03-08T10:26:17;21.30;;;11.27;;
21352;SDS011;10834;52.268;6.770;2023-03-08T10:29:03;25.47;;;13.13;;
21352;SDS011;10834;52.268;6.770;2023-03-08T10:31:49;27.87;;;15.90;;
21352;SDS011;10834;52.268;6.770;2023-03-08T10:34:36;30.20;;;16.27;;
21352;SDS011;10834;52.268;6.770;2023-03-08T10:37:22;28.93;;;16.67;;
21352;SDS011;10834;52.268;6.770;2023-03-08T10:43:05;30.37;;;15.23;;
21352;SDS011;10834;52.268;6.770;2023-03-08T10:45:58;31.97;;;15.87;;
21352;SDS011;10834;52.268;6.770;2023-03-08T10:48:46;30.27;;;15.53;;
21352;SDS011;10834;52.268;6.770;2023-03-08T10:51:33;28.53;;;15.03;;
21352;SDS011;10834;52.268;6.770;2023-03-08T10:54:19;32.40;;;16.93;;
21352;SDS011;10834;52.268;6.770;2023-03-08T10:57:16;32.50;;;17.10;;
21352;SDS011;10834;52.268;6.770;2023-03-08T11:00:15;34.37;;;17.13;;
21352;SDS011;10834;52.268;6.770;2023-03-08T11:03:24;32.43;;;17.33;;
21352;SDS011;10834;52.268;6.770;2023-03-08T11:06:14;32.27;;;19.10;;
21352;SDS011;10834;52.268;6.770;2023-03-08T11:09:20;31.93;;;17.70;;
21352;SDS011;10834;52.268;6.770;2023-03-08T11:12:20;32.57;;;18.03;;
21352;SDS011;10834;52.268;6.770;2023-03-08T11:15:19;34.57;;;18.30;;
21352;SDS011;10834;52.268;6.770;2023-03-08T11:18:27;31.47;;;17.83;;
21352;SDS011;10834;52.268;6.770;2023-03-08T11:21:42;34.03;;;18.80;;
21352;SDS011;10834;52.268;6.770;2023-03-08T11:25:10;27.87;;;16.60;;
21352;SDS011;10834;52.268;6.770;2023-03-08T11:28:04;34.60;;;18.07;;
21352;SDS011;10834;52.268;6.770;2023-03-08T11:31:21;33.07;;;17.93;;
21352;SDS011;10834;52.268;6.770;2023-03-08T11:50:21;20.93;;;13.47;;
21352;SDS011;10834;52.268;6.770;2023-03-08T11:53:32;21.73;;;13.67;;
21352;SDS011;10834;52.268;6.770;2023-03-08T11:56:24;25.77;;;12.43;;
21352;SDS011;10834;52.268;6.770;2023-03-08T11:59:24;22.57;;;12.50;;
21352;SDS011;10834;52.268;6.770;2023-03-08T12:17:23;18.90;;;11.30;;
21352;SDS011;10834;52.268;6.770;2023-03-08T12:20:15;20.37;;;11.93;;
21352;SDS011;10834;52.268;6.770;2023-03-08T12:29:51;19.13;;;11.20;;
21352;SDS011;10834;52.268;6.770;2023-03-08T12:32:30;19.43;;;10.97;;
21352;SDS011;10834;52.268;6.770;2023-03-08T12:35:27;17.37;;;10.90;;
21352;SDS011;10834;52.268;6.770;2023-03-08T12:41:02;18.43;;;11.80;;
21352;SDS011;10834;52.268;6.770;2023-03-08T12:43:57;21.57;;;11.10;;
21352;SDS011;10834;52.268;6.770;2023-03-08T12:46:49;19.83;;;11.77;;
21352;SDS011;10834;52.268;6.770;2023-03-08T12:49:53;20.13;;;11.17;;
21352;SDS011;10834;52.268;6.770;2023-03-08T12:52:43;14.20;;;9.13;;
21352;SDS011;10834;52.268;6.770;2023-03-08T12:55:29;13.87;;;9.60;;
21352;SDS011;10834;52.268;6.770;2023-03-08T12:58:16;12.97;;;8.10;;
21352;SDS011;10834;52.268;6.770;2023-03-08T13:01:04;14.57;;;8.67;;
21352;SDS011;10834;52.268;6.770;2023-03-08T13:03:52;15.13;;;8.63;;
21352;SDS011;10834;52.268;6.770;2023-03-08T13:12:32;14.97;;;8.00;;
21352;SDS011;10834;52.268;6.770;2023-03-08T13:15:33;16.77;;;9.63;;
21352;SDS011;10834;52.268;6.770;2023-03-08T13:18:19;14.80;;;9.67;;
21352;SDS011;10834;52.268;6.770;2023-03-08T13:24:05;18.70;;;11.17;;
21352;SDS011;10834;52.268;6.770;2023-03-08T13:34:18;16.87;;;11.00;;
21352;SDS011;10834;52.268;6.770;2023-03-08T13:37:19;19.13;;;10.17;;
21352;SDS011;10834;52.268;6.770;2023-03-08T13:40:17;17.70;;;10.73;;
21352;SDS011;10834;52.268;6.770;2023-03-08T13:43:05;16.50;;;10.17;;
21352;SDS011;10834;52.268;6.770;2023-03-08T13:45:53;17.73;;;9.70;;
21352;SDS011;10834;52.268;6.770;2023-03-08T13:48:42;17.53;;;10.07;;
21352;SDS011;10834;52.268;6.770;2023-03-08T13:51:29;16.00;;;9.93;;
21352;SDS011;10834;52.268;6.770;2023-03-08T13:54:16;17.03;;;9.80;;
21352;SDS011;10834;52.268;6.770;2023-03-08T13:57:17;16.93;;;9.03;;
21352;SDS011;10834;52.268;6.770;2023-03-08T14:00:25;16.43;;;10.77;;
21352;SDS011;10834;52.268;6.770;2023-03-08T14:03:18;18.77;;;10.07;;
21352;SDS011;10834;52.268;6.770;2023-03-08T14:06:18;19.17;;;9.47;;
21352;SDS011;10834;52.268;6.770;2023-03-08T14:09:04;17.60;;;10.47;;
21352;SDS011;10834;52.268;6.770;2023-03-08T14:11:58;14.27;;;9.27;;
21352;SDS011;10834;52.268;6.770;2023-03-08T14:14:48;20.10;;;9.63;;
21352;SDS011;10834;52.268;6.770;2023-03-08T14:17:42;14.83;;;9.17;;
21352;SDS011;10834;52.268;6.770;2023-03-08T14:20:29;14.00;;;8.80;;
21352;SDS011;10834;52.268;6.770;2023-03-08T14:23:21;16.23;;;8.77;;
21352;SDS011;10834;52.268;6.770;2023-03-08T14:35:13;13.10;;;8.73;;
21352;SDS011;10834;52.268;6.770;2023-03-08T14:38:25;11.00;;;7.87;;
21352;SDS011;10834;52.268;6.770;2023-03-08T14:41:12;14.77;;;8.90;;
21352;SDS011;10834;52.268;6.770;2023-03-08T14:44:00;14.97;;;9.03;;
21352;SDS011;10834;52.268;6.770;2023-03-08T14:46:50;13.70;;;8.63;;
21352;SDS011;10834;52.268;6.770;2023-03-08T14:49:42;16.80;;;8.70;;
21352;SDS011;10834;52.268;6.770;2023-03-08T14:52:59;11.43;;;8.33;;
21352;SDS011;10834;52.268;6.770;2023-03-08T14:55:48;13.83;;;9.00;;
21352;SDS011;10834;52.268;6.770;2023-03-08T14:58:36;14.83;;;9.73;;
21352;SDS011;10834;52.268;6.770;2023-03-08T15:01:28;16.53;;;9.67;;
21352;SDS011;10834;52.268;6.770;2023-03-08T15:04:17;14.07;;;9.57;;
21352;SDS011;10834;52.268;6.770;2023-03-08T15:07:05;12.23;;;8.60;;
21352;SDS011;10834;52.268;6.770;2023-03-08T15:09:51;12.73;;;8.73;;
21352;SDS011;10834;52.268;6.770;2023-03-08T15:12:37;15.60;;;8.63;;
21352;SDS011;10834;52.268;6.770;2023-03-08T15:15:26;12.50;;;8.60;;
21352;SDS011;10834;52.268;6.770;2023-03-08T15:18:12;15.30;;;9.63;;
21352;SDS011;10834;52.268;6.770;2023-03-08T15:20:58;13.80;;;9.63;;
21352;SDS011;10834;52.268;6.770;2023-03-08T15:23:45;15.37;;;9.37;;
21352;SDS011;10834;52.268;6.770;2023-03-08T15:26:32;15.40;;;9.03;;
21352;SDS011;10834;52.268;6.770;2023-03-08T15:29:26;16.60;;;9.70;;
21352;SDS011;10834;52.268;6.770;2023-03-08T15:32:13;13.77;;;8.93;;
21352;SDS011;10834;52.268;6.770;2023-03-08T15:34:59;13.80;;;9.03;;
21352;SDS011;10834;52.268;6.770;2023-03-08T15:37:45;16.37;;;9.80;;
21352;SDS011;10834;52.268;6.770;2023-03-08T15:40:33;17.33;;;9.93;;
21352;SDS011;10834;52.268;6.770;2023-03-08T15:43:19;15.37;;;9.70;;
21352;SDS011;10834;52.268;6.770;2023-03-08T15:46:05;15.20;;;9.10;;
21352;SDS011;10834;52.268;6.770;2023-03-08T15:48:54;16.27;;;10.20;;
21352;SDS011;10834;52.268;6.770;2023-03-08T15:51:41;22.00;;;10.33;;
21352;SDS011;10834;52.268;6.770;2023-03-08T15:54:27;18.90;;;9.93;;
21352;SDS011;10834;52.268;6.770;2023-03-08T15:57:15;13.17;;;9.17;;
21352;SDS011;10834;52.268;6.770;2023-03-08T16:00:02;14.57;;;9.00;;
21352;SDS011;10834;52.268;6.770;2023-03-08T16:02:52;16.60;;;8.77;;
21352;SDS011;10834;52.268;6.770;2023-03-08T16:05:38;12.93;;;7.40;;
21352;SDS011;10834;52.268;6.770;2023-03-08T16:08:25;13.40;;;9.03;;
21352;SDS011;10834;52.268;6.770;2023-03-08T16:11:13;11.47;;;7.87;;
21352;SDS011;10834;52.268;6.770;2023-03-08T16:14:01;11.10;;;7.63;;
21352;SDS011;10834;52.268;6.770;2023-03-08T16:16:47;11.40;;;7.23;;
21352;SDS011;10834;52.268;6.770;2023-03-08T16:19:34;12.90;;;7.27;;
21352;SDS011;10834;52.268;6.770;2023-03-08T16:22:20;12.67;;;7.33;;
21352;SDS011;10834;52.268;6.770;2023-03-08T16:25:07;13.00;;;7.73;;
21352;SDS011;10834;52.268;6.770;2023-03-08T16:27:54;13.60;;;7.63;;
21352;SDS011;10834;52.268;6.770;2023-03-08T16:30:40;13.90;;;8.37;;
21352;SDS011;10834;52.268;6.770;2023-03-08T16:33:27;12.70;;;8.30;;
21352;SDS011;10834;52.268;6.770;2023-03-08T16:36:13;13.83;;;7.73;;
21352;SDS011;10834;52.268;6.770;2023-03-08T16:38:59;14.20;;;7.67;;
21352;SDS011;10834;52.268;6.770;2023-03-08T16:41:45;14.07;;;7.30;;
21352;SDS011;10834;52.268;6.770;2023-03-08T16:44:32;13.63;;;8.03;;
21352;SDS011;10834;52.268;6.770;2023-03-08T16:47:18;16.97;;;8.93;;
21352;SDS011;10834;52.268;6.770;2023-03-08T16:50:06;12.80;;;7.77;;
21352;SDS011;10834;52.268;6.770;2023-03-08T16:52:56;12.67;;;7.30;;
21352;SDS011;10834;52.268;6.770;2023-03-08T16:55:42;11.00;;;7.00;;
21352;SDS011;10834;52.268;6.770;2023-03-08T16:58:28;13.80;;;8.33;;
21352;SDS011;10834;52.268;6.770;2023-03-08T17:01:15;12.37;;;7.53;;
21352;SDS011;10834;52.268;6.770;2023-03-08T17:04:02;14.50;;;8.50;;
21352;SDS011;10834;52.268;6.770;2023-03-08T17:06:48;12.83;;;7.40;;
21352;SDS011;10834;52.268;6.770;2023-03-08T17:09:35;13.47;;;8.13;;
21352;SDS011;10834;52.268;6.770;2023-03-08T17:12:21;13.67;;;7.70;;
21352;SDS011;10834;52.268;6.770;2023-03-08T17:15:07;13.60;;;7.87;;
21352;SDS011;10834;52.268;6.770;2023-03-08T17:17:55;14.70;;;8.97;;
21352;SDS011;10834;52.268;6.770;2023-03-08T17:20:41;14.37;;;8.07;;
21352;SDS011;10834;52.268;6.770;2023-03-08T17:23:27;14.23;;;8.33;;
21352;SDS011;10834;52.268;6.770;2023-03-08T17:26:14;12.93;;;8.33;;
21352;SDS011;10834;52.268;6.770;2023-03-08T17:29:00;13.83;;;9.00;;
21352;SDS011;10834;52.268;6.770;2023-03-08T17:31:47;15.60;;;8.47;;
21352;SDS011;10834;52.268;6.770;2023-03-08T17:34:34;14.33;;;8.90;;
21352;SDS011;10834;52.268;6.770;2023-03-08T17:37:20;14.60;;;8.97;;
21352;SDS011;10834;52.268;6.770;2023-03-08T17:40:08;12.87;;;8.47;;
21352;SDS011;10834;52.268;6.770;2023-03-08T17:42:56;17.40;;;9.30;;
21352;SDS011;10834;52.268;6.770;2023-03-08T17:45:54;15.60;;;9.97;;
21352;SDS011;10834;52.268;6.770;2023-03-08T17:48:42;13.20;;;8.90;;
21352;SDS011;10834;52.268;6.770;2023-03-08T17:51:29;15.03;;;9.20;;
21352;SDS011;10834;52.268;6.770;2023-03-08T17:54:17;14.50;;;9.60;;
21352;SDS011;10834;52.268;6.770;2023-03-08T17:57:03;17.73;;;9.67;;
21352;SDS011;10834;52.268;6.770;2023-03-08T17:59:50;12.63;;;9.17;;
21352;SDS011;10834;52.268;6.770;2023-03-08T18:02:37;14.30;;;9.37;;
21352;SDS011;10834;52.268;6.770;2023-03-08T18:05:23;14.13;;;9.10;;